sensor_id;sensor_type;location;lat;lon;timestamp;temperature;humidity
23305;DHT22;11821;51.456;8.844;2023-05-27T07:10:15;12.10;99.90
23305;DHT22;11821;51.456;8.844;2023-05-27T07:12:42;16.60;99.90
23305;DHT22;11821;51.456;8.844;2023-05-27T07:40:17;16.80;99.90
23305;DHT22;11821;51.456;8.844;2023-05-27T07:42:44;19.20;99.90
23305;DHT22;11821;51.456;8.844;2023-05-27T07:45:12;19.40;99.90
23305;DHT22;11821;51.456;8.844;2023-05-27T08:08:40;19.50;99.90
23305;DHT22;11821;51.456;8.844;2023-05-27T08:11:10;20.60;99.90
23305;DHT22;11821;51.456;8.844;2023-05-27T08:13:47;20.60;99.90
23305;DHT22;11821;51.456;8.844;2023-05-27T08:16:39;20.70;99.90
23305;DHT22;11821;51.456;8.844;2023-05-27T08:24:59;20.40;99.90
23305;DHT22;11821;51.456;8.844;2023-05-27T08:40:32;19.90;99.90
23305;DHT22;11821;51.456;8.844;2023-05-27T08:43:00;21.10;99.70
23305;DHT22;11821;51.456;8.844;2023-05-27T08:45:30;20.90;99.70
23305;DHT22;11821;51.456;8.844;2023-05-27T08:47:58;21.20;99.60
23305;DHT22;11821;51.456;8.844;2023-05-27T08:50:32;21.40;99.90
23305;DHT22;11821;51.456;8.844;2023-05-27T08:53:00;21.30;99.60
23305;DHT22;11821;51.456;8.844;2023-05-27T08:55:27;21.70;99.90
23305;DHT22;11821;51.456;8.844;2023-05-27T08:57:57;21.70;99.90
23305;DHT22;11821;51.456;8.844;2023-05-27T09:00:29;21.80;99.20
23305;DHT22;11821;51.456;8.844;2023-05-27T09:03:02;21.80;97.90
23305;DHT22;11821;51.456;8.844;2023-05-27T09:05:32;22.10;98.30
23305;DHT22;11821;51.456;8.844;2023-05-27T09:08:02;22.70;98.00
23305;DHT22;11821;51.456;8.844;2023-05-27T09:10:39;23.10;97.40
23305;DHT22;11821;51.456;8.844;2023-05-27T09:13:09;22.80;95.80
23305;DHT22;11821;51.456;8.844;2023-05-27T09:15:36;23.00;96.80
23305;DHT22;11821;51.456;8.844;2023-05-27T09:18:07;23.20;97.10
23305;DHT22;11821;51.456;8.844;2023-05-27T09:20:35;23.50;96.80
23305;DHT22;11821;51.456;8.844;2023-05-27T09:23:05;23.50;96.10
23305;DHT22;11821;51.456;8.844;2023-05-27T09:25:34;23.80;96.40
23305;DHT22;11821;51.456;8.844;2023-05-27T09:28:04;23.80;95.40
23305;DHT22;11821;51.456;8.844;2023-05-27T09:30:34;23.90;95.90
23305;DHT22;11821;51.456;8.844;2023-05-27T09:33:02;24.00;95.10
23305;DHT22;11821;51.456;8.844;2023-05-27T09:35:29;24.10;96.40
23305;DHT22;11821;51.456;8.844;2023-05-27T09:38:06;23.60;96.40
23305;DHT22;11821;51.456;8.844;2023-05-27T09:40:46;23.40;97.00
23305;DHT22;11821;51.456;8.844;2023-05-27T09:43:13;24.00;96.10
23305;DHT22;11821;51.456;8.844;2023-05-27T09:45:42;24.00;95.80
23305;DHT22;11821;51.456;8.844;2023-05-27T09:48:19;24.10;96.10
23305;DHT22;11821;51.456;8.844;2023-05-27T09:50:49;23.80;96.00
23305;DHT22;11821;51.456;8.844;2023-05-27T09:53:19;24.30;98.00
23305;DHT22;11821;51.456;8.844;2023-05-27T09:55:51;24.20;95.30
23305;DHT22;11821;51.456;8.844;2023-05-27T09:58:24;24.10;95.40
23305;DHT22;11821;51.456;8.844;2023-05-27T10:00:51;24.60;95.80
23305;DHT22;11821;51.456;8.844;2023-05-27T10:03:22;24.60;95.50
23305;DHT22;11821;51.456;8.844;2023-05-27T10:05:51;24.80;95.10
23305;DHT22;11821;51.456;8.844;2023-05-27T10:08:19;25.10;94.80
23305;DHT22;11821;51.456;8.844;2023-05-27T10:10:46;25.20;94.00
23305;DHT22;11821;51.456;8.844;2023-05-27T10:13:23;25.10;94.40
23305;DHT22;11821;51.456;8.844;2023-05-27T10:15:51;25.00;94.30
23305;DHT22;11821;51.456;8.844;2023-05-27T10:18:29;25.20;95.10
23305;DHT22;11821;51.456;8.844;2023-05-27T10:21:00;25.30;95.20
23305;DHT22;11821;51.456;8.844;2023-05-27T10:23:31;25.50;95.10
23305;DHT22;11821;51.456;8.844;2023-05-27T10:26:04;25.80;94.10
23305;DHT22;11821;51.456;8.844;2023-05-27T10:28:33;26.00;94.40
23305;DHT22;11821;51.456;8.844;2023-05-27T10:31:05;26.00;94.70
23305;DHT22;11821;51.456;8.844;2023-05-27T10:33:38;26.00;94.60
23305;DHT22;11821;51.456;8.844;2023-05-27T10:36:26;25.90;92.80
23305;DHT22;11821;51.456;8.844;2023-05-27T10:39:20;26.20;93.00
23305;DHT22;11821;51.456;8.844;2023-05-27T10:41:51;26.30;93.40
23305;DHT22;11821;51.456;8.844;2023-05-27T10:44:31;26.50;93.20
23305;DHT22;11821;51.456;8.844;2023-05-27T10:47:11;26.50;93.80
23305;DHT22;11821;51.456;8.844;2023-05-27T10:49:40;26.10;93.60
23305;DHT22;11821;51.456;8.844;2023-05-27T10:52:08;26.20;93.00
23305;DHT22;11821;51.456;8.844;2023-05-27T10:54:40;25.90;93.60
23305;DHT22;11821;51.456;8.844;2023-05-27T10:57:10;26.30;93.70
23305;DHT22;11821;51.456;8.844;2023-05-27T10:59:51;26.50;92.90
23305;DHT22;11821;51.456;8.844;2023-05-27T11:02:29;25.70;91.90
23305;DHT22;11821;51.456;8.844;2023-05-27T11:05:01;25.80;92.50
23305;DHT22;11821;51.456;8.844;2023-05-27T11:07:28;26.00;92.30
23305;DHT22;11821;51.456;8.844;2023-05-27T11:09:55;26.50;92.80
23305;DHT22;11821;51.456;8.844;2023-05-27T11:12:23;26.80;92.40
23305;DHT22;11821;51.456;8.844;2023-05-27T11:14:55;26.50;93.30
23305;DHT22;11821;51.456;8.844;2023-05-27T11:17:22;26.10;90.10
23305;DHT22;11821;51.456;8.844;2023-05-27T11:19:50;25.80;90.10
23305;DHT22;11821;51.456;8.844;2023-05-27T11:22:18;26.20;91.50
23305;DHT22;11821;51.456;8.844;2023-05-27T11:24:59;26.70;91.20
23305;DHT22;11821;51.456;8.844;2023-05-27T11:27:47;27.00;90.60
23305;DHT22;11821;51.456;8.844;2023-05-27T11:30:17;27.10;91.20
23305;DHT22;11821;51.456;8.844;2023-05-27T11:32:49;26.70;90.10
23305;DHT22;11821;51.456;8.844;2023-05-27T11:35:17;26.90;91.10
23305;DHT22;11821;51.456;8.844;2023-05-27T11:37:51;27.00;92.00
23305;DHT22;11821;51.456;8.844;2023-05-27T11:40:36;27.10;91.80
23305;DHT22;11821;51.456;8.844;2023-05-27T11:43:05;27.30;91.50
23305;DHT22;11821;51.456;8.844;2023-05-27T11:45:36;27.60;91.30
23305;DHT22;11821;51.456;8.844;2023-05-27T11:48:03;27.60;91.00
23305;DHT22;11821;51.456;8.844;2023-05-27T11:50:31;27.70;89.90
23305;DHT22;11821;51.456;8.844;2023-05-27T11:53:01;27.40;90.00
23305;DHT22;11821;51.456;8.844;2023-05-27T11:55:32;27.20;89.40
23305;DHT22;11821;51.456;8.844;2023-05-27T11:58:09;27.20;90.80
23305;DHT22;11821;51.456;8.844;2023-05-27T12:00:45;27.60;89.70
23305;DHT22;11821;51.456;8.844;2023-05-27T12:03:12;27.50;90.60
23305;DHT22;11821;51.456;8.844;2023-05-27T12:05:42;27.80;90.70
23305;DHT22;11821;51.456;8.844;2023-05-27T12:08:08;27.70;89.10
23305;DHT22;11821;51.456;8.844;2023-05-27T12:10:35;27.00;88.00
23305;DHT22;11821;51.456;8.844;2023-05-27T12:13:03;26.70;85.20
23305;DHT22;11821;51.456;8.844;2023-05-27T12:15:29;26.90;86.50
23305;DHT22;11821;51.456;8.844;2023-05-27T12:17:56;27.00;89.00
23305;DHT22;11821;51.456;8.844;2023-05-27T12:20:23;27.40;90.30
23305;DHT22;11821;51.456;8.844;2023-05-27T12:22:54;27.50;87.20
23305;DHT22;11821;51.456;8.844;2023-05-27T12:25:21;27.60;83.10
23305;DHT22;11821;51.456;8.844;2023-05-27T12:27:48;27.70;83.70
23305;DHT22;11821;51.456;8.844;2023-05-27T12:30:16;27.60;82.10
23305;DHT22;11821;51.456;8.844;2023-05-27T12:32:45;27.10;82.90
23305;DHT22;11821;51.456;8.844;2023-05-27T12:35:14;27.10;83.20
23305;DHT22;11821;51.456;8.844;2023-05-27T12:37:44;26.80;81.00
23305;DHT22;11821;51.456;8.844;2023-05-27T12:40:11;26.90;86.80
23305;DHT22;11821;51.456;8.844;2023-05-27T12:42:42;27.30;87.30
23305;DHT22;11821;51.456;8.844;2023-05-27T12:45:10;27.50;85.00
23305;DHT22;11821;51.456;8.844;2023-05-27T12:51:30;27.40;85.30
23305;DHT22;11821;51.456;8.844;2023-05-27T12:53:59;27.50;85.50
23305;DHT22;11821;51.456;8.844;2023-05-27T12:56:27;27.60;85.50
23305;DHT22;11821;51.456;8.844;2023-05-27T12:58:58;27.40;83.10
23305;DHT22;11821;51.456;8.844;2023-05-27T13:01:26;27.40;84.10
23305;DHT22;11821;51.456;8.844;2023-05-27T13:03:55;27.10;82.80
23305;DHT22;11821;51.456;8.844;2023-05-27T13:06:26;26.60;84.10
23305;DHT22;11821;51.456;8.844;2023-05-27T13:08:53;27.10;86.30
23305;DHT22;11821;51.456;8.844;2023-05-27T13:11:20;26.80;84.70
23305;DHT22;11821;51.456;8.844;2023-05-27T13:13:48;26.70;84.70
23305;DHT22;11821;51.456;8.844;2023-05-27T13:16:15;26.50;84.20
23305;DHT22;11821;51.456;8.844;2023-05-27T13:18:41;26.20;83.00
23305;DHT22;11821;51.456;8.844;2023-05-27T13:21:14;26.20;87.90
23305;DHT22;11821;51.456;8.844;2023-05-27T13:23:48;26.50;86.90
23305;DHT22;11821;51.456;8.844;2023-05-27T13:26:15;26.30;86.30
23305;DHT22;11821;51.456;8.844;2023-05-27T13:28:41;26.40;86.70
23305;DHT22;11821;51.456;8.844;2023-05-27T13:31:08;26.90;87.30
23305;DHT22;11821;51.456;8.844;2023-05-27T13:33:35;27.30;86.00
23305;DHT22;11821;51.456;8.844;2023-05-27T13:36:04;27.40;86.40
23305;DHT22;11821;51.456;8.844;2023-05-27T13:38:32;27.30;85.90
23305;DHT22;11821;51.456;8.844;2023-05-27T13:41:02;27.50;85.30
23305;DHT22;11821;51.456;8.844;2023-05-27T13:43:29;27.30;87.30
23305;DHT22;11821;51.456;8.844;2023-05-27T13:46:02;27.40;87.00
23305;DHT22;11821;51.456;8.844;2023-05-27T13:48:43;27.30;85.70
23305;DHT22;11821;51.456;8.844;2023-05-27T13:51:15;27.10;85.70
23305;DHT22;11821;51.456;8.844;2023-05-27T13:53:46;27.20;84.60
23305;DHT22;11821;51.456;8.844;2023-05-27T13:56:20;27.10;86.80
23305;DHT22;11821;51.456;8.844;2023-05-27T13:58:51;27.40;86.50
23305;DHT22;11821;51.456;8.844;2023-05-27T14:01:17;27.50;85.30
23305;DHT22;11821;51.456;8.844;2023-05-27T14:03:44;27.30;85.50
23305;DHT22;11821;51.456;8.844;2023-05-27T14:06:10;27.40;84.30
23305;DHT22;11821;51.456;8.844;2023-05-27T14:08:40;27.40;85.60
23305;DHT22;11821;51.456;8.844;2023-05-27T14:11:07;27.30;85.00
23305;DHT22;11821;51.456;8.844;2023-05-27T14:13:36;27.20;86.40
23305;DHT22;11821;51.456;8.844;2023-05-27T14:16:05;27.30;85.40
23305;DHT22;11821;51.456;8.844;2023-05-27T14:18:35;26.80;84.40
23305;DHT22;11821;51.456;8.844;2023-05-27T14:21:05;26.70;85.90
23305;DHT22;11821;51.456;8.844;2023-05-27T14:23:35;26.90;86.10
23305;DHT22;11821;51.456;8.844;2023-05-27T14:26:02;27.30;87.60
23305;DHT22;11821;51.456;8.844;2023-05-27T14:28:28;27.30;87.80
23305;DHT22;11821;51.456;8.844;2023-05-27T14:30:55;27.10;87.20
23305;DHT22;11821;51.456;8.844;2023-05-27T14:33:22;27.30;89.10
23305;DHT22;11821;51.456;8.844;2023-05-27T14:35:51;26.90;88.00
23305;DHT22;11821;51.456;8.844;2023-05-27T14:38:18;27.10;87.40
23305;DHT22;11821;51.456;8.844;2023-05-27T14:40:47;27.20;87.80
23305;DHT22;11821;51.456;8.844;2023-05-27T14:43:19;27.40;89.50
23305;DHT22;11821;51.456;8.844;2023-05-27T14:45:48;27.10;85.20
23305;DHT22;11821;51.456;8.844;2023-05-27T14:48:16;26.90;84.50
23305;DHT22;11821;51.456;8.844;2023-05-27T14:50:43;26.50;82.90
23305;DHT22;11821;51.456;8.844;2023-05-27T14:53:13;26.50;87.30
23305;DHT22;11821;51.456;8.844;2023-05-27T14:55:40;26.00;85.00
23305;DHT22;11821;51.456;8.844;2023-05-27T14:58:06;26.10;86.60
23305;DHT22;11821;51.456;8.844;2023-05-27T15:00:33;26.10;86.70
23305;DHT22;11821;51.456;8.844;2023-05-27T15:03:01;26.30;86.50
23305;DHT22;11821;51.456;8.844;2023-05-27T15:05:28;26.50;87.30
23305;DHT22;11821;51.456;8.844;2023-05-27T15:07:55;26.60;85.40
23305;DHT22;11821;51.456;8.844;2023-05-27T15:10:25;26.30;83.60
23305;DHT22;11821;51.456;8.844;2023-05-27T15:12:54;25.80;83.80
23305;DHT22;11821;51.456;8.844;2023-05-27T15:15:20;26.10;85.40
23305;DHT22;11821;51.456;8.844;2023-05-27T15:17:47;26.10;85.00
23305;DHT22;11821;51.456;8.844;2023-05-27T15:20:16;25.70;82.40
23305;DHT22;11821;51.456;8.844;2023-05-27T15:22:46;25.80;82.90
23305;DHT22;11821;51.456;8.844;2023-05-27T15:25:12;25.80;83.00
23305;DHT22;11821;51.456;8.844;2023-05-27T15:27:48;25.70;83.10
23305;DHT22;11821;51.456;8.844;2023-05-27T15:30:22;25.70;82.80
23305;DHT22;11821;51.456;8.844;2023-05-27T15:33:10;25.80;82.90
23305;DHT22;11821;51.456;8.844;2023-05-27T15:35:56;25.80;83.40
23305;DHT22;11821;51.456;8.844;2023-05-27T15:38:23;25.40;83.70
23305;DHT22;11821;51.456;8.844;2023-05-27T15:41:02;25.30;83.80
23305;DHT22;11821;51.456;8.844;2023-05-27T15:43:29;25.20;84.90
23305;DHT22;11821;51.456;8.844;2023-05-27T15:45:56;25.10;84.40
23305;DHT22;11821;51.456;8.844;2023-05-27T15:48:40;25.10;84.70
23305;DHT22;11821;51.456;8.844;2023-05-27T15:51:28;25.50;85.30
23305;DHT22;11821;51.456;8.844;2023-05-27T15:54:02;25.30;83.50
23305;DHT22;11821;51.456;8.844;2023-05-27T15:56:43;25.30;87.20
23305;DHT22;11821;51.456;8.844;2023-05-27T15:59:11;25.40;87.10
23305;DHT22;11821;51.456;8.844;2023-05-27T16:01:47;25.10;86.10
23305;DHT22;11821;51.456;8.844;2023-05-27T16:04:17;25.10;88.70
23305;DHT22;11821;51.456;8.844;2023-05-27T16:06:47;25.20;86.30
23305;DHT22;11821;51.456;8.844;2023-05-27T16:09:14;25.30;87.40
23305;DHT22;11821;51.456;8.844;2023-05-27T16:11:41;25.30;87.00
23305;DHT22;11821;51.456;8.844;2023-05-27T16:14:09;25.30;87.20
23305;DHT22;11821;51.456;8.844;2023-05-27T16:16:38;25.10;87.10
23305;DHT22;11821;51.456;8.844;2023-05-27T16:19:11;25.40;89.50
23305;DHT22;11821;51.456;8.844;2023-05-27T16:21:41;25.30;88.40
23305;DHT22;11821;51.456;8.844;2023-05-27T16:24:13;25.40;87.40
23305;DHT22;11821;51.456;8.844;2023-05-27T16:26:43;25.30;86.70
23305;DHT22;11821;51.456;8.844;2023-05-27T16:29:11;25.10;87.60
23305;DHT22;11821;51.456;8.844;2023-05-27T16:31:38;25.00;86.40
23305;DHT22;11821;51.456;8.844;2023-05-27T16:34:06;25.20;87.00
23305;DHT22;11821;51.456;8.844;2023-05-27T16:36:36;25.10;85.00
23305;DHT22;11821;51.456;8.844;2023-05-27T16:39:06;25.00;84.50
23305;DHT22;11821;51.456;8.844;2023-05-27T16:41:33;25.10;84.40
23305;DHT22;11821;51.456;8.844;2023-05-27T16:44:00;24.80;82.40
23305;DHT22;11821;51.456;8.844;2023-05-27T16:46:31;24.30;84.80
23305;DHT22;11821;51.456;8.844;2023-05-27T16:48:59;24.40;86.00
23305;DHT22;11821;51.456;8.844;2023-05-27T16:51:27;24.00;85.10
23305;DHT22;11821;51.456;8.844;2023-05-27T16:54:05;23.80;86.30
23305;DHT22;11821;51.456;8.844;2023-05-27T16:56:37;24.10;88.30
23305;DHT22;11821;51.456;8.844;2023-05-27T16:59:20;24.10;87.60
23305;DHT22;11821;51.456;8.844;2023-05-27T17:01:47;24.30;88.90
23305;DHT22;11821;51.456;8.844;2023-05-27T17:04:15;24.00;86.60
23305;DHT22;11821;51.456;8.844;2023-05-27T17:06:42;24.10;90.30
23305;DHT22;11821;51.456;8.844;2023-05-27T17:09:09;24.10;85.70
23305;DHT22;11821;51.456;8.844;2023-05-27T17:11:37;24.00;88.00
23305;DHT22;11821;51.456;8.844;2023-05-27T17:14:07;24.20;88.30
23305;DHT22;11821;51.456;8.844;2023-05-27T17:16:37;24.00;86.90
23305;DHT22;11821;51.456;8.844;2023-05-27T17:19:03;23.90;86.40
23305;DHT22;11821;51.456;8.844;2023-05-27T17:21:31;23.80;88.70
23305;DHT22;11821;51.456;8.844;2023-05-27T17:23:58;23.90;91.00
23305;DHT22;11821;51.456;8.844;2023-05-27T17:26:25;23.90;89.30
23305;DHT22;11821;51.456;8.844;2023-05-27T17:28:55;23.80;89.10
23305;DHT22;11821;51.456;8.844;2023-05-27T17:31:28;23.70;86.90
23305;DHT22;11821;51.456;8.844;2023-05-27T17:33:55;23.50;88.70
23305;DHT22;11821;51.456;8.844;2023-05-27T17:36:25;23.40;85.70
23305;DHT22;11821;51.456;8.844;2023-05-27T17:38:55;23.40;87.20
23305;DHT22;11821;51.456;8.844;2023-05-27T17:41:23;23.50;85.10
23305;DHT22;11821;51.456;8.844;2023-05-27T17:43:53;23.20;87.00
23305;DHT22;11821;51.456;8.844;2023-05-27T17:46:23;23.30;90.40
23305;DHT22;11821;51.456;8.844;2023-05-27T17:48:51;23.20;90.00
23305;DHT22;11821;51.456;8.844;2023-05-27T17:51:18;23.00;88.50
23305;DHT22;11821;51.456;8.844;2023-05-27T17:56:43;23.10;91.00
23305;DHT22;11821;51.456;8.844;2023-05-27T17:59:11;23.20;92.20
23305;DHT22;11821;51.456;8.844;2023-05-27T18:01:38;23.20;90.20
23305;DHT22;11821;51.456;8.844;2023-05-27T18:04:09;23.00;88.10
23305;DHT22;11821;51.456;8.844;2023-05-27T18:06:37;23.20;93.30
23305;DHT22;11821;51.456;8.844;2023-05-27T18:09:06;23.20;90.90
23305;DHT22;11821;51.456;8.844;2023-05-27T18:11:37;23.30;93.00
23305;DHT22;11821;51.456;8.844;2023-05-27T18:14:04;23.00;89.20
23305;DHT22;11821;51.456;8.844;2023-05-27T18:16:33;22.70;89.70
23305;DHT22;11821;51.456;8.844;2023-05-27T18:19:02;22.90;91.90
23305;DHT22;11821;51.456;8.844;2023-05-27T18:21:33;22.90;92.40
23305;DHT22;11821;51.456;8.844;2023-05-27T18:24:01;22.90;92.70
23305;DHT22;11821;51.456;8.844;2023-05-27T18:26:31;22.90;91.00
23305;DHT22;11821;51.456;8.844;2023-05-27T18:28:58;22.80;93.10
23305;DHT22;11821;51.456;8.844;2023-05-27T18:31:38;22.70;92.60
23305;DHT22;11821;51.456;8.844;2023-05-27T18:34:13;22.70;92.40
23305;DHT22;11821;51.456;8.844;2023-05-27T18:36:40;22.60;94.60
23305;DHT22;11821;51.456;8.844;2023-05-27T18:39:11;22.50;92.70
23305;DHT22;11821;51.456;8.844;2023-05-27T18:41:41;22.50;93.60
23305;DHT22;11821;51.456;8.844;2023-05-27T18:44:09;22.30;92.90
23305;DHT22;11821;51.456;8.844;2023-05-27T18:46:38;22.30;93.80
23305;DHT22;11821;51.456;8.844;2023-05-27T18:49:07;22.20;93.70
23305;DHT22;11821;51.456;8.844;2023-05-27T18:51:35;22.20;92.60
23305;DHT22;11821;51.456;8.844;2023-05-27T18:54:06;22.00;93.20
23305;DHT22;11821;51.456;8.844;2023-05-27T18:56:36;22.00;93.00
23305;DHT22;11821;51.456;8.844;2023-05-27T18:59:03;21.90;92.90
23305;DHT22;11821;51.456;8.844;2023-05-27T19:01:30;21.80;92.50
23305;DHT22;11821;51.456;8.844;2023-05-27T19:04:00;21.80;92.80
23305;DHT22;11821;51.456;8.844;2023-05-27T19:06:28;21.60;93.10
23305;DHT22;11821;51.456;8.844;2023-05-27T19:08:56;21.60;94.10
23305;DHT22;11821;51.456;8.844;2023-05-27T19:11:26;21.60;94.90
23305;DHT22;11821;51.456;8.844;2023-05-27T19:13:53;21.50;93.50
23305;DHT22;11821;51.456;8.844;2023-05-27T19:16:21;21.40;94.20
23305;DHT22;11821;51.456;8.844;2023-05-27T19:18:56;21.30;93.60
23305;DHT22;11821;51.456;8.844;2023-05-27T19:21:30;21.20;93.70
23305;DHT22;11821;51.456;8.844;2023-05-27T19:24:01;21.10;94.00
23305;DHT22;11821;51.456;8.844;2023-05-27T19:26:38;21.00;94.10
23305;DHT22;11821;51.456;8.844;2023-05-27T19:29:09;20.90;95.40
23305;DHT22;11821;51.456;8.844;2023-05-27T19:31:42;20.80;96.20
23305;DHT22;11821;51.456;8.844;2023-05-27T19:34:11;20.60;96.80
23305;DHT22;11821;51.456;8.844;2023-05-27T19:36:49;20.40;96.50
23305;DHT22;11821;51.456;8.844;2023-05-27T19:39:16;20.30;97.30
23305;DHT22;11821;51.456;8.844;2023-05-27T19:41:49;20.20;97.80
23305;DHT22;11821;51.456;8.844;2023-05-27T19:44:16;20.00;98.10
23305;DHT22;11821;51.456;8.844;2023-05-27T19:46:43;19.80;98.40
23305;DHT22;11821;51.456;8.844;2023-05-27T19:49:16;19.70;98.40
23305;DHT22;11821;51.456;8.844;2023-05-27T19:51:43;19.50;99.00
23305;DHT22;11821;51.456;8.844;2023-05-27T19:54:10;19.40;98.80
23305;DHT22;11821;51.456;8.844;2023-05-27T19:56:37;19.20;99.50
23305;DHT22;11821;51.456;8.844;2023-05-27T19:59:06;19.10;99.70
23305;DHT22;11821;51.456;8.844;2023-05-27T20:01:45;19.00;99.90
23305;DHT22;11821;51.456;8.844;2023-05-27T20:04:15;18.80;99.90
23305;DHT22;11821;51.456;8.844;2023-05-27T20:06:46;18.70;99.90
23305;DHT22;11821;51.456;8.844;2023-05-27T20:09:17;18.60;99.90
23305;DHT22;11821;51.456;8.844;2023-05-27T20:11:44;18.60;99.90
23305;DHT22;11821;51.456;8.844;2023-05-27T20:14:17;18.40;99.90
23305;DHT22;11821;51.456;8.844;2023-05-27T20:16:48;18.30;99.90
23305;DHT22;11821;51.456;8.844;2023-05-27T20:19:18;18.30;99.90
23305;DHT22;11821;51.456;8.844;2023-05-27T20:21:49;18.10;99.90
23305;DHT22;11821;51.456;8.844;2023-05-27T20:24:19;18.10;99.90
23305;DHT22;11821;51.456;8.844;2023-05-27T20:26:47;17.90;99.90
23305;DHT22;11821;51.456;8.844;2023-05-27T20:29:22;17.80;99.90
23305;DHT22;11821;51.456;8.844;2023-05-27T20:31:49;17.80;99.90
23305;DHT22;11821;51.456;8.844;2023-05-27T20:34:18;17.60;99.90
23305;DHT22;11821;51.456;8.844;2023-05-27T20:36:46;17.60;99.90
23305;DHT22;11821;51.456;8.844;2023-05-27T20:39:16;17.50;99.90
23305;DHT22;11821;51.456;8.844;2023-05-27T20:41:46;17.50;99.90
23305;DHT22;11821;51.456;8.844;2023-05-27T20:44:17;17.40;99.90
23305;DHT22;11821;51.456;8.844;2023-05-27T20:46:48;17.30;99.90
23305;DHT22;11821;51.456;8.844;2023-05-27T20:49:18;17.20;99.90
23305;DHT22;11821;51.456;8.844;2023-05-27T20:51:48;17.10;99.90
23305;DHT22;11821;51.456;8.844;2023-05-27T20:54:18;17.00;99.90
23305;DHT22;11821;51.456;8.844;2023-05-27T20:56:45;16.90;99.90
23305;DHT22;11821;51.456;8.844;2023-05-27T20:59:12;16.90;99.90
23305;DHT22;11821;51.456;8.844;2023-05-27T21:01:42;16.80;99.90
23305;DHT22;11821;51.456;8.844;2023-05-27T21:04:09;16.70;99.90
23305;DHT22;11821;51.456;8.844;2023-05-27T21:06:37;16.60;99.90
23305;DHT22;11821;51.456;8.844;2023-05-27T21:09:05;16.50;99.90
23305;DHT22;11821;51.456;8.844;2023-05-27T21:11:32;16.40;99.90
23305;DHT22;11821;51.456;8.844;2023-05-27T21:14:06;16.30;99.90
23305;DHT22;11821;51.456;8.844;2023-05-27T21:16:33;16.20;99.90
23305;DHT22;11821;51.456;8.844;2023-05-27T21:19:00;16.10;99.90
23305;DHT22;11821;51.456;8.844;2023-05-27T21:21:27;16.00;99.90
23305;DHT22;11821;51.456;8.844;2023-05-27T21:23:54;16.00;99.90
23305;DHT22;11821;51.456;8.844;2023-05-27T21:26:22;16.00;99.90
23305;DHT22;11821;51.456;8.844;2023-05-27T21:28:52;15.90;99.90
23305;DHT22;11821;51.456;8.844;2023-05-27T21:31:19;15.80;99.90
23305;DHT22;11821;51.456;8.844;2023-05-27T21:33:46;15.70;99.90
23305;DHT22;11821;51.456;8.844;2023-05-27T21:36:13;15.70;99.90
23305;DHT22;11821;51.456;8.844;2023-05-27T21:38:40;15.70;99.90
23305;DHT22;11821;51.456;8.844;2023-05-27T21:41:13;15.60;99.90
23305;DHT22;11821;51.456;8.844;2023-05-27T21:43:45;15.50;99.90
23305;DHT22;11821;51.456;8.844;2023-05-27T21:46:12;15.40;99.90
23305;DHT22;11821;51.456;8.844;2023-05-27T21:48:39;15.40;99.90
23305;DHT22;11821;51.456;8.844;2023-05-27T21:51:14;15.30;99.90
23305;DHT22;11821;51.456;8.844;2023-05-27T21:53:42;15.20;99.90
23305;DHT22;11821;51.456;8.844;2023-05-27T21:56:09;15.20;99.90
23305;DHT22;11821;51.456;8.844;2023-05-27T21:58:37;15.10;99.90
23305;DHT22;11821;51.456;8.844;2023-05-27T22:01:04;15.10;99.90
23305;DHT22;11821;51.456;8.844;2023-05-27T22:03:32;15.00;99.90
23305;DHT22;11821;51.456;8.844;2023-05-27T22:05:59;14.80;99.90
23305;DHT22;11821;51.456;8.844;2023-05-27T22:08:26;14.80;99.90
23305;DHT22;11821;51.456;8.844;2023-05-27T22:10:56;14.70;99.90
23305;DHT22;11821;51.456;8.844;2023-05-27T22:13:23;14.70;99.90
23305;DHT22;11821;51.456;8.844;2023-05-27T22:15:50;14.70;99.90
23305;DHT22;11821;51.456;8.844;2023-05-27T22:18:17;14.70;99.90
23305;DHT22;11821;51.456;8.844;2023-05-27T22:20:44;14.60;99.90
23305;DHT22;11821;51.456;8.844;2023-05-27T22:23:12;14.50;99.90
23305;DHT22;11821;51.456;8.844;2023-05-27T22:25:39;14.50;99.90
23305;DHT22;11821;51.456;8.844;2023-05-27T22:28:06;14.40;99.90
23305;DHT22;11821;51.456;8.844;2023-05-27T22:30:33;14.30;99.90
23305;DHT22;11821;51.456;8.844;2023-05-27T22:33:01;14.30;99.90
23305;DHT22;11821;51.456;8.844;2023-05-27T22:35:28;14.20;99.90
23305;DHT22;11821;51.456;8.844;2023-05-27T22:37:55;14.10;99.90
23305;DHT22;11821;51.456;8.844;2023-05-27T22:40:22;14.00;99.90
23305;DHT22;11821;51.456;8.844;2023-05-27T22:42:52;14.00;99.90
23305;DHT22;11821;51.456;8.844;2023-05-27T22:52:39;13.90;99.90
23305;DHT22;11821;51.456;8.844;2023-05-27T22:57:33;13.70;99.90
23305;DHT22;11821;51.456;8.844;2023-05-27T23:00:00;13.60;99.90
23305;DHT22;11821;51.456;8.844;2023-05-27T23:04:53;13.60;99.90
23305;DHT22;11821;51.456;8.844;2023-05-27T23:07:20;13.50;99.90
23305;DHT22;11821;51.456;8.844;2023-05-27T23:09:47;13.40;99.90
23305;DHT22;11821;51.456;8.844;2023-05-27T23:12:13;13.40;99.90
23305;DHT22;11821;51.456;8.844;2023-05-27T23:14:40;13.30;99.90
23305;DHT22;11821;51.456;8.844;2023-05-27T23:17:07;13.20;99.90
23305;DHT22;11821;51.456;8.844;2023-05-27T23:19:34;13.20;99.90
23305;DHT22;11821;51.456;8.844;2023-05-27T23:22:03;13.20;99.90
23305;DHT22;11821;51.456;8.844;2023-05-27T23:24:29;13.10;99.90
23305;DHT22;11821;51.456;8.844;2023-05-27T23:26:56;13.20;99.90
